Time;durP1;ratioP1;P1;durP2;ratioP2;P2;SDS_P1;SDS_P2;PMS_P1;PMS_P2;Temp;Humidity;BMP_temperature;BMP_pressure;BME280_temperature;BME280_humidity;BME280_pressure;Samples;Min_cycle;Max_cycle;Signal;HPM_P1;HPM_P2
2022/08/14 00:02:27;;;;;;;;;;;20.10;99.90;;;;;;5028840;28;19929;-67
2022/08/14 00:04:54;;;;;;;;;;;20.00;99.90;;;;;;5033300;28;20280;-67
2022/08/14 00:07:21;;;;;;;;;;;20.10;99.90;;;;;;5028608;28;19990;-67
2022/08/14 00:09:48;;;;;;;;;;;20.10;99.90;;;;;;5027192;28;19982;-66
2022/08/14 00:12:15;;;;;;;;;;;20.10;99.90;;;;;;5025506;28;20426;-67
2022/08/14 00:14:41;;;;;;;;;;;20.10;99.90;;;;;;5017979;28;19925;-67
2022/08/14 00:17:08;;;;;;;;;;;20.10;99.90;;;;;;5029424;28;19929;-67
2022/08/14 00:19:36;;;;;;;;;;;20.20;99.90;;;;;;5025150;28;19933;-67
2022/08/14 00:22:03;;;;;;;;;;;20.20;99.90;;;;;;5023053;28;20409;-67
2022/08/14 00:24:30;;;;;;;;;;;20.30;99.90;;;;;;5045651;28;19924;-67
2022/08/14 00:26:57;;;;;;;;;;;20.30;99.90;;;;;;5023224;28;19929;-67
2022/08/14 00:29:24;;;;;;;;;;;20.40;99.90;;;;;;5028638;28;20400;-67
2022/08/14 00:31:51;;;;;;;;;;;20.40;99.90;;;;;;5027601;28;20438;-67
2022/08/14 00:34:17;;;;;;;;;;;20.40;99.90;;;;;;5027514;28;19982;-67
2022/08/14 00:36:46;;;;;;;;;;;20.50;99.90;;;;;;5028279;28;19925;-67
2022/08/14 00:39:14;;;;;;;;;;;20.50;99.90;;;;;;5029414;28;19925;-66
2022/08/14 00:41:41;;;;;;;;;;;20.60;99.90;;;;;;5025869;28;20004;-67
2022/08/14 00:44:07;;;;;;;;;;;20.60;99.90;;;;;;5017043;28;19991;-66
2022/08/14 00:46:34;;;;;;;;;;;20.60;99.90;;;;;;5019854;28;19925;-67
2022/08/14 00:49:01;;;;;;;;;;;20.70;99.90;;;;;;5024659;28;19924;-67
2022/08/14 00:51:32;;;;;;;;;;;20.70;99.90;;;;;;5018947;28;19932;-67
2022/08/14 00:54:01;;;;;;;;;;;20.80;99.90;;;;;;5018538;28;20407;-67
2022/08/14 00:56:28;;;;;;;;;;;20.80;99.90;;;;;;5026133;28;19931;-67
2022/08/14 00:58:58;;;;;;;;;;;20.90;99.90;;;;;;5026501;28;19962;-67
2022/08/14 01:01:25;;;;;;;;;;;21.00;99.90;;;;;;5029058;28;20008;-67
2022/08/14 01:03:53;;;;;;;;;;;21.10;99.90;;;;;;5027827;28;20405;-67
2022/08/14 01:06:20;;;;;;;;;;;21.10;99.90;;;;;;5030684;28;19932;-66
2022/08/14 01:08:49;;;;;;;;;;;21.20;99.90;;;;;;5025148;28;19925;-66
2022/08/14 01:11:17;;;;;;;;;;;21.30;99.90;;;;;;5023776;28;20016;-67
2022/08/14 01:13:44;;;;;;;;;;;21.40;99.90;;;;;;5025282;28;19924;-67
2022/08/14 01:16:12;;;;;;;;;;;21.50;99.90;;;;;;5025690;28;19971;-66
2022/08/14 01:21:25;;;;;;;;;;;21.50;99.90;;;;;;4994940;28;19932;-67
2022/08/14 01:23:53;;;;;;;;;;;21.60;99.90;;;;;;5026729;28;19983;-66
2022/08/14 01:26:22;;;;;;;;;;;21.60;99.90;;;;;;5026752;28;19931;-67
2022/08/14 01:28:50;;;;;;;;;;;21.60;99.90;;;;;;5025271;28;19925;-66
2022/08/14 01:31:18;;;;;;;;;;;21.60;99.90;;;;;;5028402;28;19925;-67
2022/08/14 01:33:46;;;;;;;;;;;21.60;99.90;;;;;;5032987;28;19928;-66
2022/08/14 01:36:15;;;;;;;;;;;21.70;99.90;;;;;;5029550;28;19931;-66
2022/08/14 01:38:47;;;;;;;;;;;21.70;99.90;;;;;;5023146;28;20317;-67
2022/08/14 01:41:15;;;;;;;;;;;21.70;99.90;;;;;;5027153;28;19941;-66
2022/08/14 01:43:43;;;;;;;;;;;21.60;99.90;;;;;;5024902;28;19925;-66
2022/08/14 01:46:10;;;;;;;;;;;21.60;99.90;;;;;;5021513;28;20335;-66
2022/08/14 01:48:37;;;;;;;;;;;21.60;99.90;;;;;;5027187;28;19968;-66
2022/08/14 01:51:05;;;;;;;;;;;21.50;99.90;;;;;;5025864;28;20384;-66
2022/08/14 01:53:31;;;;;;;;;;;21.50;99.90;;;;;;5009418;28;20436;-66
2022/08/14 01:56:02;;;;;;;;;;;21.50;99.90;;;;;;5023529;28;19925;-66
2022/08/14 01:58:29;;;;;;;;;;;21.40;99.90;;;;;;5029016;28;19929;-66
2022/08/14 02:00:57;;;;;;;;;;;21.40;99.90;;;;;;5021378;28;19925;-67
2022/08/14 02:03:25;;;;;;;;;;;21.30;99.90;;;;;;5031889;28;19959;-66
2022/08/14 02:05:57;;;;;;;;;;;21.20;99.90;;;;;;5031290;28;19925;-66
2022/08/14 02:08:29;;;;;;;;;;;21.20;99.90;;;;;;5028703;28;20397;-66
2022/08/14 02:11:15;;;;;;;;;;;21.10;99.90;;;;;;5031581;28;19928;-66
2022/08/14 02:13:45;;;;;;;;;;;21.00;99.90;;;;;;5016989;28;19933;-67
2022/08/14 02:16:15;;;;;;;;;;;20.90;99.90;;;;;;5031305;28;19925;-65
2022/08/14 02:18:42;;;;;;;;;;;20.80;99.90;;;;;;5030841;28;20409;-66
2022/08/14 02:21:09;;;;;;;;;;;20.70;99.90;;;;;;5025499;28;19980;-66
2022/08/14 02:23:36;;;;;;;;;;;20.60;99.90;;;;;;5018556;28;19936;-66
2022/08/14 02:26:13;;;;;;;;;;;20.60;99.90;;;;;;5019335;28;20422;-66
2022/08/14 02:28:40;;;;;;;;;;;20.60;99.90;;;;;;5035509;28;19925;-67
2022/08/14 02:31:09;;;;;;;;;;;20.50;99.90;;;;;;5028727;28;19925;-66
2022/08/14 02:33:36;;;;;;;;;;;20.40;99.90;;;;;;5029329;28;19979;-66
2022/08/14 02:36:04;;;;;;;;;;;20.40;99.90;;;;;;5027466;28;19970;-66
2022/08/14 02:38:31;;;;;;;;;;;20.30;99.90;;;;;;5014462;28;20300;-66
2022/08/14 02:40:58;;;;;;;;;;;20.20;99.90;;;;;;5031607;28;19925;-66
2022/08/14 02:43:24;;;;;;;;;;;20.20;99.90;;;;;;5024485;28;19925;-66
2022/08/14 02:45:51;;;;;;;;;;;20.20;99.90;;;;;;5032258;28;20452;-66
2022/08/14 02:48:19;;;;;;;;;;;20.10;99.90;;;;;;5026451;28;19940;-66
2022/08/14 02:50:46;;;;;;;;;;;20.10;99.90;;;;;;5029753;28;20367;-66
2022/08/14 02:53:14;;;;;;;;;;;20.00;99.90;;;;;;5028315;28;19925;-66
2022/08/14 02:55:41;;;;;;;;;;;20.00;99.90;;;;;;5028646;28;19925;-67
2022/08/14 02:58:07;;;;;;;;;;;20.00;99.90;;;;;;5031380;28;19931;-66
2022/08/14 03:00:35;;;;;;;;;;;20.00;99.90;;;;;;5029418;28;19925;-66
2022/08/14 03:03:03;;;;;;;;;;;20.00;99.90;;;;;;5032169;28;20016;-66
2022/08/14 03:05:31;;;;;;;;;;;20.00;99.90;;;;;;5022296;28;19925;-66
2022/08/14 03:08:04;;;;;;;;;;;20.10;99.90;;;;;;5024608;28;20340;-66
2022/08/14 03:10:31;;;;;;;;;;;20.10;99.90;;;;;;5022282;28;19928;-66
2022/08/14 03:12:58;;;;;;;;;;;20.10;99.90;;;;;;5005582;28;19925;-66
2022/08/14 03:15:25;;;;;;;;;;;20.20;99.90;;;;;;5033051;28;20299;-66
2022/08/14 03:17:52;;;;;;;;;;;20.20;99.90;;;;;;5028067;28;19925;-66
2022/08/14 03:20:20;;;;;;;;;;;20.30;99.90;;;;;;5032558;28;19925;-66
2022/08/14 03:22:48;;;;;;;;;;;20.30;99.90;;;;;;5030817;28;19931;-66
2022/08/14 03:25:15;;;;;;;;;;;20.40;99.90;;;;;;5024843;28;19983;-66
2022/08/14 03:27:42;;;;;;;;;;;20.40;99.90;;;;;;5027875;28;20358;-66
2022/08/14 03:30:09;;;;;;;;;;;20.30;99.90;;;;;;5025821;28;19979;-66
2022/08/14 03:32:37;;;;;;;;;;;20.30;99.90;;;;;;5031609;28;19924;-66
2022/08/14 03:35:05;;;;;;;;;;;20.30;99.90;;;;;;5026552;28;20024;-67
2022/08/14 03:37:32;;;;;;;;;;;20.30;99.90;;;;;;5016457;28;19931;-65
2022/08/14 03:40:00;;;;;;;;;;;20.30;99.90;;;;;;5024327;28;19925;-66
2022/08/14 03:42:27;;;;;;;;;;;20.20;99.90;;;;;;5027542;28;19936;-67
2022/08/14 03:44:54;;;;;;;;;;;20.10;99.90;;;;;;5030488;28;19937;-66
2022/08/14 03:47:20;;;;;;;;;;;20.10;99.90;;;;;;5027546;28;19925;-66
2022/08/14 03:49:47;;;;;;;;;;;20.10;99.90;;;;;;5030643;28;19932;-66
2022/08/14 03:52:14;;;;;;;;;;;20.10;99.90;;;;;;5027479;28;19932;-66
2022/08/14 03:54:41;;;;;;;;;;;20.10;99.90;;;;;;5030867;28;19928;-66
2022/08/14 03:57:09;;;;;;;;;;;20.10;99.90;;;;;;5027056;28;19929;-66
2022/08/14 03:59:36;;;;;;;;;;;20.10;99.90;;;;;;5031549;28;19925;-66
2022/08/14 04:02:03;;;;;;;;;;;20.10;99.90;;;;;;5029201;28;19955;-67
2022/08/14 04:04:30;;;;;;;;;;;20.00;99.90;;;;;;5013086;28;19925;-66
2022/08/14 04:06:59;;;;;;;;;;;20.00;99.90;;;;;;5026534;28;19932;-66
2022/08/14 04:09:26;;;;;;;;;;;20.00;99.90;;;;;;5024916;28;20348;-66
2022/08/14 04:11:52;;;;;;;;;;;20.00;99.90;;;;;;5030485;28;19925;-66
2022/08/14 04:14:21;;;;;;;;;;;20.00;99.90;;;;;;5020151;28;19925;-65
2022/08/14 04:16:48;;;;;;;;;;;19.90;99.90;;;;;;5028164;28;19935;-66
2022/08/14 04:19:17;;;;;;;;;;;19.90;99.90;;;;;;5025322;28;19937;-66
2022/08/14 04:21:44;;;;;;;;;;;20.00;99.90;;;;;;5032069;28;19925;-66
2022/08/14 04:24:12;;;;;;;;;;;19.90;99.90;;;;;;5028777;28;19925;-65
2022/08/14 04:26:39;;;;;;;;;;;19.90;99.90;;;;;;5021100;28;20397;-66
2022/08/14 04:29:06;;;;;;;;;;;20.00;99.90;;;;;;5023382;28;19961;-66
2022/08/14 04:31:35;;;;;;;;;;;20.00;99.90;;;;;;5026647;28;20024;-66
2022/08/14 04:34:04;;;;;;;;;;;19.90;99.90;;;;;;5031502;28;19925;-67
2022/08/14 04:36:31;;;;;;;;;;;19.90;99.90;;;;;;5020813;28;19987;-66
2022/08/14 04:44:26;;;;;;;;;;;19.90;99.90;;;;;;5029107;28;19922;-66
2022/08/14 04:49:37;;;;;;;;;;;20.10;99.90;;;;;;4997531;28;19925;-66
2022/08/14 04:52:04;;;;;;;;;;;20.10;99.90;;;;;;5039917;28;19932;-66
2022/08/14 04:54:33;;;;;;;;;;;20.10;99.90;;;;;;5017172;28;20206;-66
2022/08/14 04:57:00;;;;;;;;;;;20.20;99.90;;;;;;5022816;28;19924;-67
2022/08/14 04:59:26;;;;;;;;;;;20.20;99.90;;;;;;5022742;28;19987;-66
2022/08/14 05:01:56;;;;;;;;;;;20.20;99.90;;;;;;5019362;28;19979;-67
2022/08/14 05:04:24;;;;;;;;;;;20.30;99.90;;;;;;5014903;28;20312;-67
2022/08/14 05:06:52;;;;;;;;;;;20.30;99.90;;;;;;5024035;28;19925;-67
2022/08/14 05:09:18;;;;;;;;;;;20.40;99.90;;;;;;5015671;28;20332;-67
2022/08/14 05:11:46;;;;;;;;;;;20.50;99.90;;;;;;5019228;28;19926;-68
2022/08/14 05:14:12;;;;;;;;;;;20.50;99.90;;;;;;5020232;28;20404;-67
2022/08/14 05:16:39;;;;;;;;;;;20.60;99.90;;;;;;5025646;28;19936;-67
2022/08/14 05:19:13;;;;;;;;;;;20.70;99.90;;;;;;5022486;28;19925;-66
2022/08/14 05:21:39;;;;;;;;;;;20.80;99.90;;;;;;5031538;28;19931;-66
2022/08/14 05:24:06;;;;;;;;;;;20.90;99.90;;;;;;5018032;28;19925;-67
2022/08/14 05:26:33;;;;;;;;;;;21.00;99.90;;;;;;5030193;28;19925;-67
2022/08/14 05:29:00;;;;;;;;;;;21.10;99.90;;;;;;5025901;28;19948;-68
2022/08/14 05:31:27;;;;;;;;;;;21.20;99.90;;;;;;5025448;28;19924;-67
2022/08/14 05:33:54;;;;;;;;;;;21.30;99.90;;;;;;5028792;28;20392;-67
2022/08/14 05:36:22;;;;;;;;;;;21.40;99.90;;;;;;5023224;28;19933;-66
2022/08/14 05:38:49;;;;;;;;;;;21.50;99.90;;;;;;5027157;28;20027;-65
2022/08/14 05:41:18;;;;;;;;;;;21.60;99.90;;;;;;5021350;28;19960;-65
2022/08/14 05:43:46;;;;;;;;;;;21.70;99.90;;;;;;5013753;28;19971;-66
2022/08/14 05:46:14;;;;;;;;;;;21.70;99.90;;;;;;5041413;28;19960;-65
2022/08/14 05:48:40;;;;;;;;;;;21.80;99.90;;;;;;5031839;28;19924;-66
2022/08/14 05:51:07;;;;;;;;;;;21.90;99.90;;;;;;5027279;28;19982;-67
2022/08/14 05:53:36;;;;;;;;;;;22.00;99.90;;;;;;5032728;28;20363;-66
2022/08/14 05:56:02;;;;;;;;;;;22.00;99.90;;;;;;5028311;28;19925;-67
2022/08/14 05:58:29;;;;;;;;;;;22.10;99.90;;;;;;5031347;28;19982;-67
2022/08/14 06:00:56;;;;;;;;;;;22.10;99.90;;;;;;5029130;28;19978;-68
2022/08/14 06:03:23;;;;;;;;;;;22.20;99.90;;;;;;5031748;28;19975;-67
2022/08/14 06:05:51;;;;;;;;;;;22.20;99.90;;;;;;5030525;28;20327;-70
2022/08/14 06:08:19;;;;;;;;;;;22.30;99.90;;;;;;5020160;28;19975;-73
2022/08/14 06:10:47;;;;;;;;;;;22.30;99.90;;;;;;5031854;28;19970;-67
2022/08/14 06:13:14;;;;;;;;;;;22.30;99.90;;;;;;5025421;28;20352;-67
2022/08/14 06:15:41;;;;;;;;;;;22.30;99.90;;;;;;5016290;28;19929;-67
2022/08/14 06:18:08;;;;;;;;;;;22.30;99.90;;;;;;5023412;28;20392;-68
2022/08/14 06:20:35;;;;;;;;;;;22.20;99.90;;;;;;5023143;28;19925;-69
2022/08/14 06:23:01;;;;;;;;;;;22.30;99.90;;;;;;5023744;28;20357;-67
2022/08/14 06:25:30;;;;;;;;;;;22.30;99.90;;;;;;5021984;28;19925;-68
2022/08/14 06:27:58;;;;;;;;;;;22.30;99.90;;;;;;5031072;28;19964;-68
2022/08/14 06:30:26;;;;;;;;;;;22.40;99.90;;;;;;5026717;28;19983;-68
2022/08/14 06:32:53;;;;;;;;;;;22.40;99.90;;;;;;5025589;28;19925;-69
2022/08/14 06:35:21;;;;;;;;;;;22.50;99.90;;;;;;5018821;28;19937;-68
2022/08/14 06:37:49;;;;;;;;;;;22.50;99.90;;;;;;5026427;28;20050;-68
2022/08/14 06:40:17;;;;;;;;;;;22.50;99.90;;;;;;5030071;28;20370;-69
2022/08/14 06:42:44;;;;;;;;;;;22.60;99.90;;;;;;5024284;28;19925;-68
2022/08/14 06:45:12;;;;;;;;;;;22.70;99.90;;;;;;5022819;28;20464;-68
2022/08/14 06:47:40;;;;;;;;;;;22.70;99.90;;;;;;5013569;28;19926;-70
2022/08/14 06:50:09;;;;;;;;;;;22.80;99.90;;;;;;5033464;28;19926;-68
2022/08/14 06:52:36;;;;;;;;;;;22.90;99.90;;;;;;5024319;28;19928;-68
2022/08/14 06:55:03;;;;;;;;;;;22.90;99.90;;;;;;5029334;28;19932;-67
2022/08/14 06:57:34;;;;;;;;;;;22.90;99.90;;;;;;5026095;28;19929;-67
2022/08/14 07:00:01;;;;;;;;;;;23.00;99.90;;;;;;5027946;28;20031;-68
2022/08/14 07:07:59;;;;;;;;;;;23.20;99.90;;;;;;5029296;28;19921;-68
2022/08/14 07:10:26;;;;;;;;;;;23.30;99.90;;;;;;5022776;28;20392;-68
2022/08/14 07:12:53;;;;;;;;;;;23.40;99.90;;;;;;5034916;28;19931;-68
2022/08/14 07:15:20;;;;;;;;;;;23.50;99.90;;;;;;5027003;28;20365;-68
2022/08/14 07:17:48;;;;;;;;;;;23.50;99.90;;;;;;5027882;28;20465;-68
2022/08/14 07:20:19;;;;;;;;;;;23.60;99.90;;;;;;5029438;28;20289;-68
2022/08/14 07:22:46;;;;;;;;;;;23.60;99.90;;;;;;5022173;28;19925;-68
2022/08/14 07:25:13;;;;;;;;;;;23.60;99.90;;;;;;5029830;28;19925;-67
2022/08/14 07:27:39;;;;;;;;;;;23.70;99.90;;;;;;5022620;28;19929;-68
2022/08/14 07:30:07;;;;;;;;;;;23.90;99.90;;;;;;5012386;28;19925;-66
2022/08/14 07:32:33;;;;;;;;;;;23.90;99.90;;;;;;5022888;28;20457;-68
2022/08/14 07:35:02;;;;;;;;;;;24.00;99.90;;;;;;5028504;28;19929;-68
2022/08/14 07:37:28;;;;;;;;;;;24.10;99.90;;;;;;5026616;28;19931;-70
2022/08/14 07:39:55;;;;;;;;;;;24.10;99.90;;;;;;5023762;28;19925;-69
2022/08/14 07:42:22;;;;;;;;;;;24.10;99.90;;;;;;5026275;28;19929;-68
2022/08/14 07:44:49;;;;;;;;;;;24.10;99.90;;;;;;5020964;28;19971;-68
2022/08/14 07:47:15;;;;;;;;;;;24.10;99.90;;;;;;5015152;28;19925;-68
2022/08/14 07:49:45;;;;;;;;;;;24.20;99.90;;;;;;5023433;28;19970;-67
2022/08/14 07:52:13;;;;;;;;;;;24.30;99.90;;;;;;5016032;28;19929;-68
2022/08/14 07:54:41;;;;;;;;;;;24.30;99.90;;;;;;5020277;28;19929;-68
2022/08/14 07:57:07;;;;;;;;;;;24.30;99.90;;;;;;5027087;28;20300;-68
2022/08/14 07:59:34;;;;;;;;;;;24.40;99.90;;;;;;5023492;28;19926;-69
2022/08/14 08:02:03;;;;;;;;;;;24.50;99.90;;;;;;5011084;28;19933;-68
2022/08/14 08:04:31;;;;;;;;;;;24.70;99.90;;;;;;5022840;28;20450;-68
2022/08/14 08:06:59;;;;;;;;;;;24.90;99.90;;;;;;5020703;28;19932;-69
2022/08/14 08:09:29;;;;;;;;;;;25.00;99.90;;;;;;5025221;28;19936;-68
2022/08/14 08:11:56;;;;;;;;;;;25.20;99.90;;;;;;5018711;28;19925;-68
2022/08/14 08:14:23;;;;;;;;;;;25.40;99.90;;;;;;5027332;28;19932;-68
2022/08/14 08:16:49;;;;;;;;;;;25.40;99.90;;;;;;5011770;28;19947;-68
2022/08/14 08:19:17;;;;;;;;;;;25.50;99.90;;;;;;5003418;28;19925;-68
2022/08/14 08:21:45;;;;;;;;;;;25.70;99.90;;;;;;5020494;28;19925;-68
2022/08/14 08:24:12;;;;;;;;;;;25.80;99.90;;;;;;5028024;28;19925;-68
2022/08/14 08:26:40;;;;;;;;;;;25.90;99.90;;;;;;5023647;28;20392;-68
2022/08/14 08:29:08;;;;;;;;;;;26.00;99.90;;;;;;5021421;28;19932;-68
2022/08/14 08:31:45;;;;;;;;;;;26.20;99.90;;;;;;5026538;28;19929;-68
2022/08/14 08:34:12;;;;;;;;;;;26.30;99.90;;;;;;5016144;28;19925;-68
2022/08/14 08:36:40;;;;;;;;;;;26.30;99.90;;;;;;5028209;28;19928;-68
2022/08/14 08:39:07;;;;;;;;;;;26.40;99.90;;;;;;5017543;28;19928;-68
2022/08/14 08:41:45;;;;;;;;;;;26.50;99.90;;;;;;5019946;28;19925;-68
2022/08/14 08:44:12;;;;;;;;;;;26.50;99.90;;;;;;5009781;28;19935;-68
2022/08/14 08:46:41;;;;;;;;;;;26.60;99.90;;;;;;5020917;28;19925;-68
2022/08/14 08:49:09;;;;;;;;;;;26.70;99.90;;;;;;5024488;28;20292;-68
2022/08/14 08:51:37;;;;;;;;;;;26.70;99.90;;;;;;5013541;28;19925;-68
2022/08/14 08:54:05;;;;;;;;;;;26.80;99.90;;;;;;5017627;28;19929;-68
2022/08/14 08:56:35;;;;;;;;;;;26.90;99.90;;;;;;5009919;28;19924;-69
2022/08/14 08:59:05;;;;;;;;;;;27.00;99.90;;;;;;5021240;28;20347;-68
2022/08/14 09:01:33;;;;;;;;;;;27.10;99.90;;;;;;5021412;28;19934;-69
2022/08/14 09:04:03;;;;;;;;;;;27.20;99.90;;;;;;5025402;28;20494;-68
2022/08/14 09:06:30;;;;;;;;;;;27.20;99.90;;;;;;5017579;28;19929;-69
2022/08/14 09:08:56;;;;;;;;;;;27.30;99.90;;;;;;5030312;28;19929;-69
2022/08/14 09:11:23;;;;;;;;;;;27.30;99.90;;;;;;5025867;28;20446;-68
2022/08/14 09:13:51;;;;;;;;;;;27.40;99.90;;;;;;5024975;28;19925;-68
2022/08/14 09:16:21;;;;;;;;;;;27.50;99.90;;;;;;5026927;28;20289;-68
2022/08/14 09:18:48;;;;;;;;;;;27.60;99.90;;;;;;5023003;28;19925;-66
2022/08/14 09:21:15;;;;;;;;;;;27.70;99.90;;;;;;5028150;28;19925;-68
2022/08/14 09:23:42;;;;;;;;;;;27.70;99.90;;;;;;5017117;28;20552;-68
2022/08/14 09:26:08;;;;;;;;;;;27.80;99.90;;;;;;5029940;28;19974;-68
2022/08/14 09:28:35;;;;;;;;;;;28.00;99.90;;;;;;5012961;28;20290;-68
2022/08/14 09:31:02;;;;;;;;;;;28.10;99.90;;;;;;5015647;28;19935;-68
2022/08/14 09:33:43;;;;;;;;;;;28.20;99.90;;;;;;5042887;28;19925;-68
2022/08/14 09:36:18;;;;;;;;;;;28.40;99.90;;;;;;5029384;28;19940;-68
2022/08/14 09:38:46;;;;;;;;;;;28.60;99.90;;;;;;5025447;28;20020;-68
2022/08/14 09:41:18;;;;;;;;;;;28.80;99.90;;;;;;5029600;28;19925;-68
2022/08/14 09:43:49;;;;;;;;;;;29.00;99.50;;;;;;5023692;28;19925;-68
2022/08/14 09:46:16;;;;;;;;;;;29.10;98.80;;;;;;5015991;28;19925;-69
2022/08/14 09:48:45;;;;;;;;;;;29.30;99.30;;;;;;5017731;28;19980;-68
2022/08/14 09:51:22;;;;;;;;;;;29.30;98.50;;;;;;5023501;28;19944;-69
2022/08/14 09:53:59;;;;;;;;;;;29.50;96.70;;;;;;5028392;28;19960;-67
2022/08/14 09:56:25;;;;;;;;;;;29.50;97.50;;;;;;5023875;28;20023;-69
2022/08/14 09:58:52;;;;;;;;;;;29.60;97.20;;;;;;5024582;28;19929;-69
2022/08/14 10:01:20;;;;;;;;;;;29.70;96.90;;;;;;5022261;28;19929;-69
2022/08/14 10:03:51;;;;;;;;;;;29.80;96.40;;;;;;5029162;28;19925;-69
2022/08/14 10:06:19;;;;;;;;;;;30.00;95.00;;;;;;5025622;28;19961;-69
2022/08/14 10:08:47;;;;;;;;;;;30.00;96.30;;;;;;5029311;28;19929;-68
2022/08/14 10:11:18;;;;;;;;;;;30.10;94.50;;;;;;5027047;28;19924;-69
2022/08/14 10:13:45;;;;;;;;;;;30.10;94.70;;;;;;5030873;28;20307;-69
2022/08/14 10:16:13;;;;;;;;;;;30.20;94.30;;;;;;5024111;28;20409;-69
2022/08/14 10:18:40;;;;;;;;;;;30.30;92.80;;;;;;5023352;28;19964;-69
2022/08/14 10:21:10;;;;;;;;;;;30.20;94.10;;;;;;5018536;28;19925;-69
2022/08/14 10:23:41;;;;;;;;;;;30.20;93.30;;;;;;5026171;28;20431;-70
2022/08/14 10:26:08;;;;;;;;;;;30.50;94.70;;;;;;5021242;28;19925;-69
2022/08/14 10:28:41;;;;;;;;;;;30.60;95.00;;;;;;5022478;28;19928;-70
2022/08/14 10:31:16;;;;;;;;;;;30.70;94.30;;;;;;5009262;28;19936;-70
2022/08/14 10:33:43;;;;;;;;;;;30.80;93.30;;;;;;5014077;28;19929;-71
2022/08/14 10:36:11;;;;;;;;;;;31.00;91.50;;;;;;5015179;28;20016;-70
2022/08/14 10:38:38;;;;;;;;;;;31.10;91.20;;;;;;5023206;28;19933;-70
2022/08/14 10:41:12;;;;;;;;;;;31.30;92.80;;;;;;5010234;28;19940;-71
2022/08/14 10:43:39;;;;;;;;;;;31.40;93.60;;;;;;5031068;28;20490;-71
2022/08/14 10:46:12;;;;;;;;;;;31.70;91.40;;;;;;5014043;28;19925;-71
2022/08/14 10:48:39;;;;;;;;;;;31.70;90.50;;;;;;5020119;28;20347;-70
2022/08/14 10:51:05;;;;;;;;;;;31.50;91.20;;;;;;5018052;28;19925;-73
2022/08/14 10:53:36;;;;;;;;;;;31.40;91.10;;;;;;5017511;28;20343;-71
2022/08/14 10:56:07;;;;;;;;;;;31.50;92.00;;;;;;5025969;28;19924;-71
2022/08/14 10:58:35;;;;;;;;;;;31.60;91.60;;;;;;5014350;28;20316;-70
2022/08/14 11:01:06;;;;;;;;;;;31.90;91.50;;;;;;5026568;28;19925;-77
2022/08/14 11:03:37;;;;;;;;;;;32.10;90.60;;;;;;5031027;28;20298;-72
2022/08/14 11:06:13;;;;;;;;;;;32.30;90.50;;;;;;5019589;28;19936;-68
2022/08/14 11:08:41;;;;;;;;;;;32.50;90.20;;;;;;5035856;28;19929;-68
2022/08/14 11:11:08;;;;;;;;;;;32.60;90.20;;;;;;5025778;28;19925;-67
2022/08/14 11:13:37;;;;;;;;;;;32.70;89.70;;;;;;5022488;28;19932;-68
2022/08/14 11:16:03;;;;;;;;;;;32.80;90.20;;;;;;5012696;28;19960;-68
2022/08/14 11:18:31;;;;;;;;;;;32.90;89.20;;;;;;5025073;28;19983;-70
2022/08/14 11:20:59;;;;;;;;;;;33.10;89.40;;;;;;5021302;28;19924;-70
2022/08/14 11:23:27;;;;;;;;;;;33.30;88.60;;;;;;5009650;28;19925;-70
2022/08/14 11:25:56;;;;;;;;;;;33.30;88.70;;;;;;5022614;28;19947;-68
2022/08/14 11:28:25;;;;;;;;;;;33.50;88.70;;;;;;5029979;28;19932;-70
2022/08/14 11:30:52;;;;;;;;;;;33.80;89.30;;;;;;5028559;28;19925;-69
2022/08/14 11:33:23;;;;;;;;;;;34.00;87.80;;;;;;5023160;28;19933;-70
2022/08/14 11:35:50;;;;;;;;;;;34.10;87.90;;;;;;5021975;28;20389;-70
2022/08/14 11:38:20;;;;;;;;;;;35.00;88.10;;;;;;5024097;28;19925;-70
2022/08/14 11:40:47;;;;;;;;;;;36.90;86.50;;;;;;5018909;28;20311;-70
2022/08/14 11:43:15;;;;;;;;;;;38.40;84.10;;;;;;5016921;28;20200;-70
2022/08/14 11:45:46;;;;;;;;;;;39.60;82.40;;;;;;5033817;28;19933;-67
2022/08/14 11:48:17;;;;;;;;;;;41.20;81.00;;;;;;5013163;28;20415;-69
2022/08/14 11:50:45;;;;;;;;;;;41.50;78.80;;;;;;5020619;28;19925;-67
2022/08/14 11:53:19;;;;;;;;;;;42.30;78.50;;;;;;5023756;28;19925;-68
2022/08/14 11:55:46;;;;;;;;;;;43.60;78.10;;;;;;5025085;28;20016;-69
2022/08/14 11:58:13;;;;;;;;;;;44.10;76.50;;;;;;5024795;28;20348;-68
2022/08/14 12:00:48;;;;;;;;;;;44.30;75.70;;;;;;5023159;28;19925;-68
2022/08/14 12:03:15;;;;;;;;;;;44.40;75.10;;;;;;5022107;28;19930;-69
2022/08/14 12:05:42;;;;;;;;;;;44.40;75.20;;;;;;5024274;28;19932;-68
2022/08/14 12:08:09;;;;;;;;;;;44.00;74.70;;;;;;5020873;28;20373;-69
2022/08/14 12:10:37;;;;;;;;;;;44.30;74.30;;;;;;5017552;28;19951;-69
2022/08/14 12:13:14;;;;;;;;;;;44.50;74.10;;;;;;5018781;28;19979;-66
2022/08/14 12:15:41;;;;;;;;;;;44.30;73.50;;;;;;5013743;28;19953;-66
2022/08/14 12:18:10;;;;;;;;;;;44.00;73.70;;;;;;5022811;28;20471;-67
2022/08/14 12:20:38;;;;;;;;;;;44.20;73.00;;;;;;5017867;28;19925;-66
2022/08/14 12:23:06;;;;;;;;;;;44.60;72.60;;;;;;5013874;28;19929;-68
2022/08/14 12:25:34;;;;;;;;;;;45.10;73.10;;;;;;5025860;28;19924;-71
2022/08/14 12:28:04;;;;;;;;;;;45.90;72.90;;;;;;5023752;28;19926;-68
2022/08/14 12:30:32;;;;;;;;;;;46.50;72.30;;;;;;5024111;28;19929;-68
2022/08/14 12:33:00;;;;;;;;;;;46.30;71.00;;;;;;5016813;28;20307;-68
2022/08/14 12:35:37;;;;;;;;;;;45.60;71.40;;;;;;5028624;28;19975;-68
2022/08/14 12:38:04;;;;;;;;;;;44.50;71.60;;;;;;5013149;28;20016;-68
2022/08/14 12:40:31;;;;;;;;;;;44.30;71.90;;;;;;5011629;28;19929;-65
2022/08/14 12:43:00;;;;;;;;;;;44.90;71.80;;;;;;5022008;28;20399;-68
2022/08/14 12:45:30;;;;;;;;;;;45.30;71.20;;;;;;5019611;28;20304;-69
2022/08/14 12:47:59;;;;;;;;;;;45.00;72.10;;;;;;5025374;28;19925;-69
2022/08/14 12:50:34;;;;;;;;;;;45.80;71.20;;;;;;5017592;28;20320;-69
2022/08/14 12:53:02;;;;;;;;;;;46.70;70.80;;;;;;5024706;28;20400;-69
2022/08/14 12:55:31;;;;;;;;;;;47.30;69.80;;;;;;5019902;28;19929;-68
2022/08/14 12:57:59;;;;;;;;;;;47.80;69.60;;;;;;5021498;28;19925;-69
2022/08/14 13:00:26;;;;;;;;;;;48.50;68.90;;;;;;5023512;28;19925;-69
2022/08/14 13:02:54;;;;;;;;;;;48.00;69.10;;;;;;5030459;28;20450;-69
2022/08/14 13:05:22;;;;;;;;;;;48.10;68.80;;;;;;5027955;28;19999;-69
2022/08/14 13:07:50;;;;;;;;;;;47.00;67.90;;;;;;5019622;28;19928;-68
2022/08/14 13:10:20;;;;;;;;;;;46.40;68.00;;;;;;5013856;28;19932;-67
2022/08/14 13:12:48;;;;;;;;;;;46.10;69.20;;;;;;5014220;28;20356;-69
2022/08/14 13:15:16;;;;;;;;;;;46.70;68.50;;;;;;5013870;28;19971;-70
2022/08/14 13:17:44;;;;;;;;;;;47.70;68.70;;;;;;5013803;28;20020;-70
2022/08/14 13:20:12;;;;;;;;;;;47.70;68.40;;;;;;5010664;28;19932;-70
2022/08/14 13:22:40;;;;;;;;;;;47.70;68.20;;;;;;5013839;28;19929;-69
2022/08/14 13:25:07;;;;;;;;;;;47.40;67.40;;;;;;5013871;28;19960;-70
2022/08/14 13:27:36;;;;;;;;;;;46.70;68.40;;;;;;5013858;28;20348;-71
2022/08/14 13:30:05;;;;;;;;;;;46.20;67.80;;;;;;5013787;28;19932;-70
2022/08/14 13:32:32;;;;;;;;;;;45.60;67.70;;;;;;5014100;28;19980;-71
2022/08/14 13:34:59;;;;;;;;;;;45.60;68.20;;;;;;5014314;28;19932;-71
2022/08/14 13:37:26;;;;;;;;;;;45.70;68.40;;;;;;5013694;28;19986;-70
2022/08/14 13:39:54;;;;;;;;;;;45.10;68.80;;;;;;5008306;28;20352;-70
2022/08/14 13:42:21;;;;;;;;;;;44.70;68.70;;;;;;5012392;28;19925;-69
2022/08/14 13:44:53;;;;;;;;;;;44.80;69.40;;;;;;5002759;28;19925;-70
2022/08/14 13:47:20;;;;;;;;;;;44.60;68.30;;;;;;5008719;28;20028;-71
2022/08/14 13:49:47;;;;;;;;;;;43.90;69.30;;;;;;5008611;28;20348;-72
2022/08/14 13:52:16;;;;;;;;;;;44.30;69.60;;;;;;5010520;28;20350;-72
2022/08/14 13:54:44;;;;;;;;;;;44.90;68.60;;;;;;5005489;28;19926;-72
2022/08/14 13:57:11;;;;;;;;;;;44.90;69.30;;;;;;5012093;28;19979;-72
2022/08/14 13:59:43;;;;;;;;;;;45.60;68.50;;;;;;5014160;28;19925;-73
2022/08/14 14:02:11;;;;;;;;;;;45.90;68.50;;;;;;5010873;28;20540;-72
2022/08/14 14:04:39;;;;;;;;;;;46.20;68.10;;;;;;5011373;28;19926;-71
2022/08/14 14:07:10;;;;;;;;;;;46.10;68.20;;;;;;5014212;28;19956;-72
2022/08/14 14:09:38;;;;;;;;;;;45.50;68.80;;;;;;5010644;28;19929;-72
2022/08/14 14:12:07;;;;;;;;;;;45.70;68.90;;;;;;5013465;28;19925;-72
2022/08/14 14:14:34;;;;;;;;;;;45.50;68.20;;;;;;5032694;28;19925;-71
2022/08/14 14:17:01;;;;;;;;;;;45.00;68.20;;;;;;5017412;28;19925;-72
2022/08/14 14:19:32;;;;;;;;;;;45.00;68.50;;;;;;5016029;28;19933;-71
2022/08/14 14:21:59;;;;;;;;;;;45.00;69.00;;;;;;5019126;28;19932;-72
2022/08/14 14:24:26;;;;;;;;;;;43.90;68.50;;;;;;5021517;28;19933;-72
2022/08/14 14:26:54;;;;;;;;;;;42.50;69.90;;;;;;5016070;28;19929;-72
2022/08/14 14:29:21;;;;;;;;;;;41.40;70.40;;;;;;5015751;28;20297;-72
2022/08/14 14:31:48;;;;;;;;;;;40.40;71.20;;;;;;5016589;28;19925;-72
2022/08/14 14:34:17;;;;;;;;;;;40.60;71.00;;;;;;5015947;28;20016;-73
2022/08/14 14:36:45;;;;;;;;;;;40.10;71.00;;;;;;5009394;28;19925;-72
2022/08/14 14:39:13;;;;;;;;;;;39.40;71.50;;;;;;5015154;28;19925;-72